createdAt,value
2023-02-22T00:00:44.201Z,22.10
2023-02-22T00:03:16.469Z,22.10
2023-02-22T00:05:47.595Z,22.10
2023-02-22T00:08:15.737Z,22.10
2023-02-22T00:10:43.405Z,22.10
2023-02-22T00:13:13.477Z,22.10
2023-02-22T00:15:42.571Z,22.10
2023-02-22T00:18:11.413Z,22.00
2023-02-22T00:20:39.747Z,22.00
2023-02-22T00:23:08.313Z,22.10
2023-02-22T00:25:36.484Z,22.00
2023-02-22T00:28:05.381Z,22.10
2023-02-22T00:30:34.105Z,22.10
2023-02-22T00:33:02.015Z,22.10
2023-02-22T00:35:30.928Z,22.10
2023-02-22T00:37:59.856Z,22.20
2023-02-22T00:40:30.771Z,22.20
2023-02-22T00:42:59.292Z,22.30
2023-02-22T00:48:17.318Z,22.30
2023-02-22T00:50:44.954Z,22.30
2023-02-22T00:53:13.394Z,22.30
2023-02-22T00:55:41.095Z,22.40
2023-02-22T00:58:08.996Z,22.40
2023-02-22T01:00:38.464Z,22.40
2023-02-22T01:03:11.063Z,22.50
2023-02-22T01:05:39.582Z,22.60
2023-02-22T01:08:14.520Z,22.60
2023-02-22T01:10:42.300Z,22.60
2023-02-22T01:13:13.796Z,22.70
2023-02-22T01:15:42.913Z,22.70
2023-02-22T01:18:10.797Z,22.80
2023-02-22T01:20:39.271Z,22.80
2023-02-22T01:23:09.016Z,22.90
2023-02-22T01:25:36.848Z,23.00
2023-02-22T01:28:05.748Z,23.10
2023-02-22T01:30:34.734Z,23.10
2023-02-22T01:33:03.731Z,23.20
2023-02-22T01:35:33.056Z,23.30
2023-02-22T01:38:01.539Z,23.30
2023-02-22T01:40:29.851Z,23.40
2023-02-22T01:42:59.024Z,23.50
2023-02-22T01:45:35.376Z,23.50
2023-02-22T01:48:03.746Z,23.60
2023-02-22T01:50:36.369Z,23.60
2023-02-22T01:53:05.685Z,23.70
2023-02-22T01:58:04.501Z,23.80
2023-02-22T02:00:35.104Z,23.80
2023-02-22T02:06:01.620Z,23.90
2023-02-22T02:08:43.003Z,24.00
2023-02-22T02:11:10.938Z,24.00
2023-02-22T02:13:39.219Z,24.10
2023-02-22T02:16:09.806Z,24.10
2023-02-22T02:18:46.488Z,24.10
2023-02-22T02:24:19.701Z,24.10
2023-02-22T02:26:59.606Z,24.10
2023-02-22T02:29:43.489Z,24.20
2023-02-22T02:32:11.524Z,24.30
2023-02-22T02:34:45.959Z,24.30
2023-02-22T02:37:13.598Z,24.40
2023-02-22T02:39:44.196Z,24.40
2023-02-22T02:42:14.418Z,24.50
2023-02-22T02:44:45.854Z,24.60
2023-02-22T02:47:15.702Z,24.60
2023-02-22T02:49:56.965Z,24.70
2023-02-22T02:52:25.767Z,24.80
2023-02-22T02:54:55.082Z,24.80
2023-02-22T02:57:22.647Z,24.80
2023-02-22T02:59:50.196Z,24.80
2023-02-22T03:02:26.976Z,24.90
2023-02-22T03:05:13.061Z,24.90
2023-02-22T03:07:59.252Z,25.00
2023-02-22T03:10:43.812Z,25.00
2023-02-22T03:13:17.641Z,25.00
2023-02-22T03:15:59.481Z,25.10
2023-02-22T03:18:33.765Z,25.20
2023-02-22T03:21:01.942Z,25.20
2023-02-22T03:23:32.496Z,25.30
2023-02-22T03:26:05.280Z,25.40
2023-02-22T03:28:34.459Z,25.40
2023-02-22T03:31:05.051Z,25.50
2023-02-22T03:33:41.942Z,25.50
2023-02-22T03:36:41.985Z,25.50
2023-02-22T03:39:20.571Z,25.60
2023-02-22T03:41:55.172Z,25.70
2023-02-22T03:44:24.890Z,25.70
2023-02-22T03:46:54.531Z,25.90
2023-02-22T03:49:33.512Z,25.90
2023-02-22T03:52:02.085Z,26.00
2023-02-22T03:54:30.840Z,26.10
2023-02-22T03:57:10.757Z,26.10
2023-02-22T03:59:39.578Z,26.20
2023-02-22T04:02:08.030Z,26.20
2023-02-22T04:07:25.678Z,26.30
2023-02-22T04:09:54.065Z,26.40
2023-02-22T04:12:21.737Z,26.40
2023-02-22T04:14:50.237Z,26.40
2023-02-22T04:17:18.407Z,26.50
2023-02-22T04:19:47.018Z,26.60
2023-02-22T04:22:14.806Z,26.70
2023-02-22T04:24:54.566Z,26.80
2023-02-22T04:27:22.433Z,26.80
2023-02-22T04:29:50.863Z,26.90
2023-02-22T04:32:21.867Z,26.90
2023-02-22T04:34:50.175Z,27.00
2023-02-22T04:37:18.036Z,27.00
2023-02-22T04:39:47.137Z,27.00
2023-02-22T04:42:14.779Z,27.00
2023-02-22T04:44:43.136Z,27.10
2023-02-22T04:47:11.818Z,27.10
2023-02-22T04:49:39.850Z,27.10
2023-02-22T04:52:07.383Z,27.20
2023-02-22T04:54:35.276Z,27.30
2023-02-22T04:57:03.860Z,27.30
2023-02-22T04:59:52.814Z,27.30
2023-02-22T05:02:28.003Z,27.30
2023-02-22T05:04:56.881Z,27.30
2023-02-22T05:07:25.715Z,27.40
2023-02-22T05:09:56.351Z,27.40
2023-02-22T05:12:24.921Z,27.50
2023-02-22T05:14:56.314Z,27.50
2023-02-22T05:17:30.868Z,27.50
2023-02-22T05:20:01.150Z,27.50
2023-02-22T05:22:30.524Z,27.50
2023-02-22T05:25:01.103Z,27.60
2023-02-22T05:27:30.530Z,27.70
2023-02-22T05:30:07.193Z,27.70
2023-02-22T05:32:39.833Z,27.80
2023-02-22T05:35:09.577Z,27.90
2023-02-22T05:37:37.469Z,27.90
2023-02-22T05:40:05.275Z,28.00
2023-02-22T05:42:32.984Z,28.10
2023-02-22T05:45:07.305Z,28.10
2023-02-22T05:47:36.352Z,28.10
2023-02-22T05:50:05.797Z,28.20
2023-02-22T05:52:35.430Z,28.30
2023-02-22T05:55:05.661Z,28.30
2023-02-22T05:57:36.323Z,28.40
2023-02-22T06:00:07.980Z,28.40
2023-02-22T06:02:38.992Z,28.40
2023-02-22T06:05:06.844Z,28.40
2023-02-22T06:07:34.514Z,28.40
2023-02-22T06:10:02.779Z,28.40
2023-02-22T06:12:30.451Z,28.40
2023-02-22T06:14:58.132Z,28.50
2023-02-22T06:17:26.636Z,28.50
2023-02-22T06:19:54.348Z,28.60
2023-02-22T06:22:25.634Z,28.60
2023-02-22T06:24:55.097Z,28.60
2023-02-22T06:30:22.106Z,28.70
2023-02-22T06:32:54.584Z,28.70
2023-02-22T06:35:22.591Z,28.70
2023-02-22T06:37:50.224Z,28.70
2023-02-22T06:40:23.427Z,28.70
2023-02-22T06:42:54.206Z,28.70
2023-02-22T06:45:25.688Z,28.70
2023-02-22T06:47:53.477Z,28.70
2023-02-22T06:50:27.074Z,28.80
2023-02-22T06:52:55.698Z,28.80
2023-02-22T06:55:33.945Z,28.90
2023-02-22T06:58:01.974Z,28.90
2023-02-22T07:00:30.562Z,28.90
2023-02-22T07:03:03.388Z,29.00
2023-02-22T07:05:31.264Z,29.10
2023-02-22T07:08:03.865Z,29.10
2023-02-22T07:10:33.614Z,29.10
2023-02-22T07:13:02.499Z,29.20
2023-02-22T07:15:31.638Z,29.10
2023-02-22T07:18:00.907Z,29.10
2023-02-22T07:20:30.730Z,29.10
2023-02-22T07:22:58.443Z,29.10
2023-02-22T07:25:26.325Z,29.10
2023-02-22T07:27:54.061Z,29.10
2023-02-22T07:30:25.726Z,29.10
2023-02-22T07:32:54.493Z,29.20
2023-02-22T07:35:27.207Z,29.30
2023-02-22T07:37:56.049Z,29.30
2023-02-22T07:40:24.519Z,29.30
2023-02-22T07:42:53.355Z,29.30
2023-02-22T07:45:26.414Z,29.40
2023-02-22T07:47:55.314Z,29.40
2023-02-22T07:50:24.010Z,29.40
2023-02-22T07:52:53.138Z,29.40
2023-02-22T07:55:22.351Z,29.40
2023-02-22T07:57:50.886Z,29.40
2023-02-22T08:00:34.175Z,29.50
2023-02-22T08:03:02.812Z,29.40
2023-02-22T08:05:31.842Z,29.40
2023-02-22T08:08:03.384Z,29.40
2023-02-22T08:10:32.249Z,29.50
2023-02-22T08:13:00.605Z,29.50
2023-02-22T08:15:30.248Z,29.60
2023-02-22T08:17:59.362Z,29.60
2023-02-22T08:20:29.373Z,29.60
2023-02-22T08:22:57.846Z,29.60
2023-02-22T08:25:28.706Z,29.60
2023-02-22T08:28:02.056Z,29.70
2023-02-22T08:30:31.179Z,29.70
2023-02-22T08:33:00.283Z,29.70
2023-02-22T08:35:29.015Z,29.60
2023-02-22T08:37:59.125Z,29.60
2023-02-22T08:40:28.494Z,29.50
2023-02-22T08:42:56.320Z,29.50
2023-02-22T08:45:24.400Z,29.50
2023-02-22T08:47:53.091Z,29.50
2023-02-22T08:50:25.333Z,29.60
2023-02-22T08:52:53.659Z,29.60
2023-02-22T08:55:22.700Z,29.60
2023-02-22T08:57:51.031Z,29.50
2023-02-22T09:00:19.212Z,29.50
2023-02-22T09:02:47.956Z,29.50
2023-02-22T09:05:19.431Z,29.60
2023-02-22T09:07:47.027Z,29.60
2023-02-22T09:10:16.470Z,29.60
2023-02-22T09:12:44.290Z,29.60
2023-02-22T09:15:12.556Z,29.60
2023-02-22T09:17:44.338Z,29.50
2023-02-22T09:20:17.784Z,29.50
2023-02-22T09:22:47.020Z,29.50
2023-02-22T09:25:17.113Z,29.60
2023-02-22T09:27:45.380Z,29.50
2023-02-22T09:30:19.816Z,29.60
2023-02-22T09:32:47.966Z,29.60
2023-02-22T09:35:16.113Z,29.60
2023-02-22T09:37:45.770Z,29.60
2023-02-22T09:40:26.192Z,29.50
2023-02-22T09:43:00.489Z,29.50
2023-02-22T09:45:59.829Z,29.50
2023-02-22T09:48:28.953Z,29.50
2023-02-22T09:50:59.200Z,29.50
2023-02-22T09:53:36.560Z,29.50
2023-02-22T09:56:16.204Z,29.50
2023-02-22T09:58:48.972Z,29.50
2023-02-22T10:01:20.294Z,29.40
2023-02-22T10:03:54.865Z,29.40
2023-02-22T10:06:24.819Z,29.40
2023-02-22T10:08:57.400Z,29.30
2023-02-22T10:11:26.207Z,29.30
2023-02-22T10:14:14.731Z,29.30
2023-02-22T10:16:55.054Z,29.30
2023-02-22T10:19:35.070Z,29.30
2023-02-22T10:22:06.340Z,29.20
2023-02-22T10:24:39.369Z,29.20
2023-02-22T10:27:08.750Z,29.20
2023-02-22T10:29:36.440Z,29.10
2023-02-22T10:32:06.177Z,29.10
2023-02-22T10:34:49.534Z,29.10
2023-02-22T10:37:28.946Z,29.10
2023-02-22T10:40:06.187Z,29.00
2023-02-22T10:42:34.592Z,29.00
2023-02-22T10:45:02.129Z,28.90
2023-02-22T10:47:30.160Z,28.90
2023-02-22T10:49:59.136Z,28.90
2023-02-22T10:52:27.584Z,28.80
2023-02-22T10:55:13.780Z,28.80
2023-02-22T10:57:46.793Z,28.80
2023-02-22T11:00:40.277Z,28.80
2023-02-22T11:03:22.993Z,28.70
2023-02-22T11:05:51.940Z,28.70
2023-02-22T11:08:22.476Z,28.60
2023-02-22T11:10:55.695Z,28.60
2023-02-22T11:13:34.400Z,28.60
2023-02-22T11:16:17.044Z,28.50
2023-02-22T11:18:45.765Z,28.50
2023-02-22T11:21:15.353Z,28.40
2023-02-22T11:23:45.121Z,28.40
2023-02-22T11:26:16.873Z,28.40
2023-02-22T11:28:49.940Z,28.30
2023-02-22T11:31:22.664Z,28.30
2023-02-22T11:33:53.245Z,28.20
2023-02-22T11:36:43.680Z,28.20
2023-02-22T11:39:27.306Z,28.10
2023-02-22T11:41:57.818Z,28.10
2023-02-22T11:44:28.283Z,28.00
2023-02-22T11:46:58.016Z,28.00
2023-02-22T11:49:33.667Z,27.90
2023-02-22T11:52:13.332Z,27.90
2023-02-22T11:54:48.895Z,27.90
2023-02-22T11:57:22.479Z,27.80
2023-02-22T12:00:16.596Z,27.80
2023-02-22T12:02:56.404Z,27.80
2023-02-22T12:05:42.975Z,27.70
2023-02-22T12:08:23.319Z,27.70
2023-02-22T12:10:56.875Z,27.70
2023-02-22T12:13:40.546Z,27.60
2023-02-22T12:16:17.287Z,27.60
2023-02-22T12:19:05.917Z,27.60
2023-02-22T12:21:34.795Z,27.50
2023-02-22T12:24:14.626Z,27.50
2023-02-22T12:26:44.203Z,27.50
2023-02-22T12:29:18.016Z,27.40
2023-02-22T12:32:03.830Z,27.40
2023-02-22T12:34:38.468Z,27.30
2023-02-22T12:37:21.035Z,27.30
2023-02-22T12:40:12.262Z,27.30
2023-02-22T12:42:39.773Z,27.20
2023-02-22T12:45:11.846Z,27.10
2023-02-22T12:47:44.886Z,27.10
2023-02-22T12:50:21.019Z,27.00
2023-02-22T12:52:52.556Z,26.90
2023-02-22T12:55:26.033Z,26.90
2023-02-22T12:57:59.826Z,26.80
2023-02-22T13:00:28.870Z,26.70
2023-02-22T13:03:06.564Z,26.70
2023-02-22T13:05:36.728Z,26.60
2023-02-22T13:08:23.493Z,26.60
2023-02-22T13:11:11.247Z,26.60
2023-02-22T13:13:56.888Z,26.50
2023-02-22T13:16:52.914Z,26.50
2023-02-22T13:19:42.869Z,26.50
2023-02-22T13:22:10.427Z,26.40
2023-02-22T13:24:44.001Z,26.30
2023-02-22T13:27:19.735Z,26.30
2023-02-22T13:29:52.420Z,26.20
2023-02-22T13:32:38.431Z,26.20
2023-02-22T13:35:31.640Z,26.20
2023-02-22T13:38:18.580Z,26.10
2023-02-22T13:40:59.419Z,26.10
2023-02-22T13:43:31.339Z,26.00
2023-02-22T13:46:08.289Z,26.00
2023-02-22T13:48:54.050Z,26.00
2023-02-22T13:51:39.832Z,26.00
2023-02-22T13:54:16.581Z,26.00
2023-02-22T13:56:45.896Z,26.00
2023-02-22T13:59:31.587Z,26.00
2023-02-22T14:02:00.604Z,25.90
2023-02-22T14:04:28.245Z,25.80
2023-02-22T14:06:55.810Z,25.80
2023-02-22T14:09:45.758Z,25.80
2023-02-22T14:12:42.449Z,25.80
2023-02-22T14:15:28.129Z,25.80
2023-02-22T14:17:57.508Z,25.70
2023-02-22T14:20:35.287Z,25.70
2023-02-22T14:23:21.250Z,25.70
2023-02-22T14:25:48.934Z,25.60
2023-02-22T14:28:35.470Z,25.60
2023-02-22T14:31:17.409Z,25.50
2023-02-22T14:33:55.987Z,25.50
2023-02-22T14:36:37.466Z,25.50
2023-02-22T14:39:25.073Z,25.40
2023-02-22T14:41:56.457Z,25.40
2023-02-22T14:44:25.952Z,25.40
2023-02-22T14:46:54.599Z,25.40
2023-02-22T14:49:23.862Z,25.40
2023-02-22T14:51:54.524Z,25.40
2023-02-22T14:54:26.398Z,25.30
2023-02-22T14:57:17.942Z,25.30
2023-02-22T14:59:53.484Z,25.30
2023-02-22T15:02:26.126Z,25.20
2023-02-22T15:04:55.291Z,25.20
2023-02-22T15:07:27.854Z,25.20
2023-02-22T15:10:18.728Z,25.20
2023-02-22T15:13:12.853Z,25.20
2023-02-22T15:15:47.446Z,25.20
2023-02-22T15:18:36.591Z,25.20
2023-02-22T15:21:13.223Z,25.20
2023-02-22T15:23:52.059Z,25.20
2023-02-22T15:26:25.638Z,25.20
2023-02-22T15:28:57.587Z,25.20
2023-02-22T15:31:35.264Z,25.20
2023-02-22T15:34:11.937Z,25.20
2023-02-22T15:36:39.432Z,25.20
2023-02-22T15:39:09.056Z,25.20
2023-02-22T15:41:36.779Z,25.10
2023-02-22T15:44:14.104Z,25.20
2023-02-22T15:46:50.146Z,25.10
2023-02-22T15:49:19.457Z,25.10
2023-02-22T15:51:49.434Z,25.10
2023-02-22T15:54:27.197Z,25.00
2023-02-22T15:56:57.806Z,25.00
2023-02-22T15:59:30.699Z,25.00
2023-02-22T16:01:59.107Z,25.00
2023-02-22T16:04:28.099Z,25.00
2023-02-22T16:07:03.976Z,25.00
2023-02-22T16:09:33.411Z,25.00
2023-02-22T16:12:11.763Z,25.00
2023-02-22T16:14:40.076Z,25.00
2023-02-22T16:17:14.390Z,25.00
2023-02-22T16:19:45.281Z,25.00
2023-02-22T16:22:27.162Z,25.00
2023-02-22T16:25:01.550Z,25.00
2023-02-22T16:27:29.057Z,25.00
2023-02-22T16:30:24.455Z,25.00
2023-02-22T16:32:53.378Z,25.00
2023-02-22T16:35:20.916Z,25.00
2023-02-22T16:37:52.760Z,25.10
2023-02-22T16:40:25.061Z,25.10
2023-02-22T16:42:52.993Z,25.20
2023-02-22T16:45:21.411Z,25.20
2023-02-22T16:47:53.857Z,25.20
2023-02-22T16:50:22.298Z,25.30
2023-02-22T16:52:50.403Z,25.30
2023-02-22T16:55:19.845Z,25.30
2023-02-22T16:57:49.346Z,25.40
2023-02-22T17:00:32.298Z,25.40
2023-02-22T17:03:04.038Z,25.40
2023-02-22T17:05:32.877Z,25.40
2023-02-22T17:08:00.402Z,25.40
2023-02-22T17:10:29.209Z,25.40
2023-02-22T17:12:57.922Z,25.40
2023-02-22T17:15:35.742Z,25.40
2023-02-22T17:18:05.150Z,25.30
2023-02-22T17:20:32.618Z,25.30
2023-02-22T17:23:04.270Z,25.30
2023-02-22T17:25:33.765Z,25.30
2023-02-22T17:28:01.233Z,25.30
2023-02-22T17:30:28.888Z,25.40
2023-02-22T17:33:03.719Z,25.40
2023-02-22T17:35:35.069Z,25.40
2023-02-22T17:38:06.426Z,25.30
2023-02-22T17:40:34.739Z,25.30
2023-02-22T17:43:02.490Z,25.30
2023-02-22T17:45:30.447Z,25.30
2023-02-22T17:47:59.788Z,25.20
2023-02-22T17:50:27.643Z,25.20
2023-02-22T17:52:55.214Z,25.20
2023-02-22T17:55:23.021Z,25.20
2023-02-22T17:57:58.458Z,25.20
2023-02-22T18:00:33.251Z,25.20
2023-02-22T18:03:02.042Z,25.10
2023-02-22T18:05:30.143Z,25.10
2023-02-22T18:07:57.709Z,25.10
2023-02-22T18:10:26.654Z,25.10
2023-02-22T18:12:54.180Z,25.10
2023-02-22T18:15:21.686Z,25.00
2023-02-22T18:17:49.250Z,25.00
2023-02-22T18:20:31.227Z,25.00
2023-02-22T18:22:59.482Z,24.90
2023-02-22T18:25:27.558Z,24.90
2023-02-22T18:27:55.993Z,24.80
2023-02-22T18:30:24.448Z,24.80
2023-02-22T18:32:52.510Z,24.80
2023-02-22T18:35:20.042Z,24.80
2023-02-22T18:37:48.298Z,24.80
2023-02-22T18:40:19.190Z,24.70
2023-02-22T18:42:47.576Z,24.70
2023-02-22T18:45:15.338Z,24.60
2023-02-22T18:47:44.069Z,24.60
2023-02-22T18:50:13.213Z,24.60
2023-02-22T18:52:46.780Z,24.50
2023-02-22T18:55:18.850Z,24.50
2023-02-22T18:57:46.720Z,24.50
2023-02-22T19:00:17.042Z,24.40
2023-02-22T19:02:44.591Z,24.40
2023-02-22T19:05:13.011Z,24.40
2023-02-22T19:07:40.628Z,24.40
2023-02-22T19:10:08.188Z,24.30
2023-02-22T19:12:35.827Z,24.30
2023-02-22T19:15:04.382Z,24.20
2023-02-22T19:17:32.807Z,24.20
2023-02-22T19:20:00.326Z,24.20
2023-02-22T19:22:32.928Z,24.20
2023-02-22T19:25:02.400Z,24.10
2023-02-22T19:27:30.717Z,24.10
2023-02-22T19:29:58.852Z,24.10
2023-02-22T19:32:26.526Z,24.10
2023-02-22T19:35:02.355Z,24.00
2023-02-22T19:37:34.317Z,24.00
2023-02-22T19:40:02.876Z,24.00
2023-02-22T19:42:30.400Z,24.00
2023-02-22T19:44:58.214Z,24.00
2023-02-22T19:47:25.782Z,23.90
2023-02-22T19:49:53.274Z,23.90
2023-02-22T19:52:20.731Z,23.90
2023-02-22T19:54:49.982Z,23.90
2023-02-22T19:57:17.452Z,23.80
2023-02-22T19:59:45.412Z,23.80
2023-02-22T20:02:13.345Z,23.80
2023-02-22T20:04:41.082Z,23.70
2023-02-22T20:07:08.566Z,23.70
2023-02-22T20:09:43.395Z,23.70
2023-02-22T20:12:11.792Z,23.70
2023-02-22T20:14:39.254Z,23.60
2023-02-22T20:17:08.047Z,23.60
2023-02-22T20:19:37.877Z,23.60
2023-02-22T20:22:05.449Z,23.60
2023-02-22T20:24:33.038Z,23.60
2023-02-22T20:27:00.588Z,23.50
2023-02-22T20:29:31.046Z,23.50
2023-02-22T20:32:02.204Z,23.50
2023-02-22T20:34:33.787Z,23.50
2023-02-22T20:37:01.719Z,23.50
2023-02-22T20:39:29.691Z,23.50
2023-02-22T20:42:00.648Z,23.50
2023-02-22T20:44:28.334Z,23.50
2023-02-22T20:46:56.843Z,23.40
2023-02-22T20:49:25.046Z,23.40
2023-02-22T20:51:53.389Z,23.40
2023-02-22T20:54:20.979Z,23.40
2023-02-22T20:56:48.598Z,23.40
2023-02-22T20:59:17.590Z,23.30
2023-02-22T21:01:47.618Z,23.30
2023-02-22T21:04:15.727Z,23.30
2023-02-22T21:06:44.718Z,23.30
2023-02-22T21:09:13.580Z,23.20
2023-02-22T21:11:41.146Z,23.20
2023-02-22T21:14:13.498Z,23.20
2023-02-22T21:16:41.106Z,23.20
2023-02-22T21:19:08.641Z,23.20
2023-02-22T21:21:36.428Z,23.20
2023-02-22T21:24:04.042Z,23.20
2023-02-22T21:26:32.570Z,23.20
2023-02-22T21:29:01.010Z,23.20
2023-02-22T21:31:29.154Z,23.20
2023-02-22T21:33:57.506Z,23.10
2023-02-22T21:36:25.858Z,23.20
2023-02-22T21:38:58.659Z,23.10
2023-02-22T21:41:27.894Z,23.10
2023-02-22T21:43:56.265Z,23.10
2023-02-22T21:46:24.626Z,23.10
2023-02-22T21:48:52.251Z,23.10
2023-02-22T21:51:25.556Z,23.00
2023-02-22T21:53:54.960Z,23.00
2023-02-22T21:56:27.851Z,22.90
2023-02-22T21:58:59.704Z,22.90
2023-02-22T22:01:28.631Z,22.90
2023-02-22T22:03:57.119Z,22.80
2023-02-22T22:06:24.691Z,22.80
2023-02-22T22:08:54.432Z,22.80
2023-02-22T22:11:22.278Z,22.80
2023-02-22T22:13:49.900Z,22.80
2023-02-22T22:16:19.611Z,22.80
2023-02-22T22:18:47.523Z,22.70
2023-02-22T22:21:21.100Z,22.70
2023-02-22T22:23:49.270Z,22.70
2023-02-22T22:26:20.211Z,22.70
2023-02-22T22:28:54.748Z,22.60
2023-02-22T22:31:23.711Z,22.60
2023-02-22T22:33:51.476Z,22.50
2023-02-22T22:36:21.471Z,22.50
2023-02-22T22:38:50.223Z,22.50
2023-02-22T22:41:19.396Z,22.50
2023-02-22T22:43:47.784Z,22.50
2023-02-22T22:46:16.434Z,22.50
2023-02-22T22:48:47.214Z,22.50
2023-02-22T22:51:16.596Z,22.50
2023-02-22T22:53:45.532Z,22.50
2023-02-22T22:56:14.525Z,22.40
2023-02-22T22:58:44.212Z,22.40
2023-02-22T23:01:19.837Z,22.30
2023-02-22T23:03:55.371Z,22.30
2023-02-22T23:06:33.364Z,22.30
2023-02-22T23:09:08.221Z,22.30
2023-02-22T23:11:35.726Z,22.20
2023-02-22T23:14:05.118Z,22.20
2023-02-22T23:16:32.661Z,22.20
2023-02-22T23:19:00.221Z,22.10
2023-02-22T23:21:28.026Z,22.10
2023-02-22T23:23:58.401Z,22.20
2023-02-22T23:26:27.048Z,22.10
2023-02-22T23:28:56.636Z,22.10
2023-02-22T23:31:24.256Z,22.10
2023-02-22T23:33:52.107Z,22.00
2023-02-22T23:36:20.185Z,22.00
2023-02-22T23:38:47.901Z,21.90
2023-02-22T23:41:17.469Z,22.00
2023-02-22T23:43:45.970Z,22.00
2023-02-22T23:46:18.869Z,22.00
2023-02-22T23:48:51.964Z,22.00
2023-02-22T23:51:25.684Z,22.00
2023-02-22T23:53:55.945Z,22.00
2023-02-22T23:56:25.169Z,22.00
2023-02-22T23:58:53.254Z,22.00
